sensor_id;sensor_type;location;lat;lon;timestamp;temperature;humidity
74513;DHT22;62992;52.052;8.550;2024-01-15T00:02:33;1.40;99.90
74513;DHT22;62992;52.052;8.550;2024-01-15T00:05:17;1.40;99.90
74513;DHT22;62992;52.052;8.550;2024-01-15T00:08:02;1.30;99.90
74513;DHT22;62992;52.052;8.550;2024-01-15T00:10:46;1.40;99.90
74513;DHT22;62992;52.052;8.550;2024-01-15T00:13:30;1.30;99.90
74513;DHT22;62992;52.052;8.550;2024-01-15T00:16:14;1.20;99.90
74513;DHT22;62992;52.052;8.550;2024-01-15T00:18:58;1.30;99.90
74513;DHT22;62992;52.052;8.550;2024-01-15T00:21:43;1.30;99.90
74513;DHT22;62992;52.052;8.550;2024-01-15T00:24:27;1.30;99.90
74513;DHT22;62992;52.052;8.550;2024-01-15T00:27:11;1.30;99.90
74513;DHT22;62992;52.052;8.550;2024-01-15T00:29:55;1.30;99.90
74513;DHT22;62992;52.052;8.550;2024-01-15T00:32:39;1.40;99.90
74513;DHT22;62992;52.052;8.550;2024-01-15T00:35:24;1.40;99.90
74513;DHT22;62992;52.052;8.550;2024-01-15T00:38:08;1.40;99.90
74513;DHT22;62992;52.052;8.550;2024-01-15T00:40:52;1.50;99.90
74513;DHT22;62992;52.052;8.550;2024-01-15T00:43:36;1.50;99.90
74513;DHT22;62992;52.052;8.550;2024-01-15T00:46:20;1.40;99.90
74513;DHT22;62992;52.052;8.550;2024-01-15T00:49:05;1.40;99.90
74513;DHT22;62992;52.052;8.550;2024-01-15T00:51:49;1.40;99.90
74513;DHT22;62992;52.052;8.550;2024-01-15T00:54:33;1.50;99.90
74513;DHT22;62992;52.052;8.550;2024-01-15T00:57:18;1.50;99.90
74513;DHT22;62992;52.052;8.550;2024-01-15T01:00:02;1.50;99.90
74513;DHT22;62992;52.052;8.550;2024-01-15T01:02:46;1.50;99.90
74513;DHT22;62992;52.052;8.550;2024-01-15T01:05:31;1.50;99.90
74513;DHT22;62992;52.052;8.550;2024-01-15T01:08:15;1.40;99.90
74513;DHT22;62992;52.052;8.550;2024-01-15T01:10:59;1.40;99.90
74513;DHT22;62992;52.052;8.550;2024-01-15T01:13:43;1.40;99.90
74513;DHT22;62992;52.052;8.550;2024-01-15T01:16:27;1.50;99.90
74513;DHT22;62992;52.052;8.550;2024-01-15T01:19:12;1.40;99.90
74513;DHT22;62992;52.052;8.550;2024-01-15T01:21:56;1.40;99.90
74513;DHT22;62992;52.052;8.550;2024-01-15T01:24:40;1.30;99.90
74513;DHT22;62992;52.052;8.550;2024-01-15T01:27:24;1.30;99.90
74513;DHT22;62992;52.052;8.550;2024-01-15T01:30:08;1.30;99.90
74513;DHT22;62992;52.052;8.550;2024-01-15T01:32:52;1.30;99.90
74513;DHT22;62992;52.052;8.550;2024-01-15T01:35:37;1.30;99.90
74513;DHT22;62992;52.052;8.550;2024-01-15T01:38:21;1.40;99.90
74513;DHT22;62992;52.052;8.550;2024-01-15T01:41:05;1.40;99.90
74513;DHT22;62992;52.052;8.550;2024-01-15T01:43:49;1.40;99.90
74513;DHT22;62992;52.052;8.550;2024-01-15T01:46:33;1.50;99.90
74513;DHT22;62992;52.052;8.550;2024-01-15T01:49:19;1.40;99.90
74513;DHT22;62992;52.052;8.550;2024-01-15T01:52:03;1.40;99.90
74513;DHT22;62992;52.052;8.550;2024-01-15T01:54:48;1.40;99.90
74513;DHT22;62992;52.052;8.550;2024-01-15T01:57:33;1.50;99.90
74513;DHT22;62992;52.052;8.550;2024-01-15T02:00:18;1.50;99.90
74513;DHT22;62992;52.052;8.550;2024-01-15T02:03:03;1.40;99.90
74513;DHT22;62992;52.052;8.550;2024-01-15T02:05:47;1.50;99.90
74513;DHT22;62992;52.052;8.550;2024-01-15T02:08:32;1.50;99.90
74513;DHT22;62992;52.052;8.550;2024-01-15T02:11:16;1.50;99.90
74513;DHT22;62992;52.052;8.550;2024-01-15T02:14:01;1.50;99.90
74513;DHT22;62992;52.052;8.550;2024-01-15T02:16:45;1.40;99.90
74513;DHT22;62992;52.052;8.550;2024-01-15T02:19:30;1.30;99.90
74513;DHT22;62992;52.052;8.550;2024-01-15T02:22:14;1.40;99.90
74513;DHT22;62992;52.052;8.550;2024-01-15T02:24:58;1.40;99.90
74513;DHT22;62992;52.052;8.550;2024-01-15T02:27:42;1.40;99.90
74513;DHT22;62992;52.052;8.550;2024-01-15T02:30:28;1.30;99.90
74513;DHT22;62992;52.052;8.550;2024-01-15T02:33:12;1.40;99.90
74513;DHT22;62992;52.052;8.550;2024-01-15T02:35:57;1.40;99.90
74513;DHT22;62992;52.052;8.550;2024-01-15T02:38:41;1.40;99.90
74513;DHT22;62992;52.052;8.550;2024-01-15T02:41:25;1.30;99.90
74513;DHT22;62992;52.052;8.550;2024-01-15T02:44:10;1.30;99.90
74513;DHT22;62992;52.052;8.550;2024-01-15T02:46:54;1.40;99.90
74513;DHT22;62992;52.052;8.550;2024-01-15T02:49:38;1.40;99.90
74513;DHT22;62992;52.052;8.550;2024-01-15T02:52:22;1.40;99.90
74513;DHT22;62992;52.052;8.550;2024-01-15T02:55:06;1.40;99.90
74513;DHT22;62992;52.052;8.550;2024-01-15T02:57:51;1.40;99.90
74513;DHT22;62992;52.052;8.550;2024-01-15T03:00:35;1.50;99.90
74513;DHT22;62992;52.052;8.550;2024-01-15T03:03:19;1.40;99.90
74513;DHT22;62992;52.052;8.550;2024-01-15T03:06:03;1.40;99.90
74513;DHT22;62992;52.052;8.550;2024-01-15T03:08:47;1.40;99.90
74513;DHT22;62992;52.052;8.550;2024-01-15T03:11:38;1.40;99.90
74513;DHT22;62992;52.052;8.550;2024-01-15T03:14:22;1.40;99.90
74513;DHT22;62992;52.052;8.550;2024-01-15T03:17:09;1.40;99.90
74513;DHT22;62992;52.052;8.550;2024-01-15T03:19:53;1.50;99.90
74513;DHT22;62992;52.052;8.550;2024-01-15T03:22:38;1.50;99.90
74513;DHT22;62992;52.052;8.550;2024-01-15T03:25:22;1.40;99.90
74513;DHT22;62992;52.052;8.550;2024-01-15T03:28:06;1.40;99.90
74513;DHT22;62992;52.052;8.550;2024-01-15T03:30:50;1.40;99.90
74513;DHT22;62992;52.052;8.550;2024-01-15T03:33:34;1.40;99.90
74513;DHT22;62992;52.052;8.550;2024-01-15T03:36:18;1.50;99.90
74513;DHT22;62992;52.052;8.550;2024-01-15T03:39:02;1.50;99.90
74513;DHT22;62992;52.052;8.550;2024-01-15T03:41:47;1.40;99.90
74513;DHT22;62992;52.052;8.550;2024-01-15T03:44:31;1.50;99.90
74513;DHT22;62992;52.052;8.550;2024-01-15T03:47:15;1.50;99.90
74513;DHT22;62992;52.052;8.550;2024-01-15T03:49:59;1.40;99.90
74513;DHT22;62992;52.052;8.550;2024-01-15T03:52:43;1.40;99.90
74513;DHT22;62992;52.052;8.550;2024-01-15T03:55:28;1.50;99.90
74513;DHT22;62992;52.052;8.550;2024-01-15T03:58:12;1.50;99.90
74513;DHT22;62992;52.052;8.550;2024-01-15T04:00:58;1.50;99.90
74513;DHT22;62992;52.052;8.550;2024-01-15T04:03:43;1.50;99.90
74513;DHT22;62992;52.052;8.550;2024-01-15T04:06:27;1.50;99.90
74513;DHT22;62992;52.052;8.550;2024-01-15T04:09:12;1.60;99.90
74513;DHT22;62992;52.052;8.550;2024-01-15T04:11:56;1.50;99.90
74513;DHT22;62992;52.052;8.550;2024-01-15T04:14:40;1.50;99.90
74513;DHT22;62992;52.052;8.550;2024-01-15T04:17:24;1.50;99.90
74513;DHT22;62992;52.052;8.550;2024-01-15T04:20:09;1.50;99.90
74513;DHT22;62992;52.052;8.550;2024-01-15T04:22:53;1.60;99.90
74513;DHT22;62992;52.052;8.550;2024-01-15T04:25:37;1.50;99.90
74513;DHT22;62992;52.052;8.550;2024-01-15T04:28:21;1.50;99.90
74513;DHT22;62992;52.052;8.550;2024-01-15T04:31:05;1.60;99.90
74513;DHT22;62992;52.052;8.550;2024-01-15T04:33:50;1.60;99.90
74513;DHT22;62992;52.052;8.550;2024-01-15T04:36:40;1.60;99.90
74513;DHT22;62992;52.052;8.550;2024-01-15T04:39:25;1.60;99.90
74513;DHT22;62992;52.052;8.550;2024-01-15T04:42:08;1.60;99.90
74513;DHT22;62992;52.052;8.550;2024-01-15T04:44:53;1.50;99.90
74513;DHT22;62992;52.052;8.550;2024-01-15T04:47:37;1.50;99.90
74513;DHT22;62992;52.052;8.550;2024-01-15T04:50:21;1.50;99.90
74513;DHT22;62992;52.052;8.550;2024-01-15T04:53:05;1.50;99.90
74513;DHT22;62992;52.052;8.550;2024-01-15T04:55:49;1.60;99.90
74513;DHT22;62992;52.052;8.550;2024-01-15T04:58:33;1.60;99.90
74513;DHT22;62992;52.052;8.550;2024-01-15T05:01:18;1.50;99.90
74513;DHT22;62992;52.052;8.550;2024-01-15T05:04:02;1.50;99.90
74513;DHT22;62992;52.052;8.550;2024-01-15T05:06:46;1.50;99.90
74513;DHT22;62992;52.052;8.550;2024-01-15T05:09:30;1.50;99.90
74513;DHT22;62992;52.052;8.550;2024-01-15T05:12:14;1.50;99.90
74513;DHT22;62992;52.052;8.550;2024-01-15T05:14:58;1.50;99.90
74513;DHT22;62992;52.052;8.550;2024-01-15T05:17:43;1.50;99.90
74513;DHT22;62992;52.052;8.550;2024-01-15T05:20:27;1.50;99.90
74513;DHT22;62992;52.052;8.550;2024-01-15T05:23:11;1.40;99.90
74513;DHT22;62992;52.052;8.550;2024-01-15T05:25:55;1.50;99.90
74513;DHT22;62992;52.052;8.550;2024-01-15T05:28:42;1.50;99.90
74513;DHT22;62992;52.052;8.550;2024-01-15T05:31:27;1.40;99.90
74513;DHT22;62992;52.052;8.550;2024-01-15T05:34:11;1.40;99.90
74513;DHT22;62992;52.052;8.550;2024-01-15T05:36:55;1.40;99.90
74513;DHT22;62992;52.052;8.550;2024-01-15T05:39:39;1.40;99.90
74513;DHT22;62992;52.052;8.550;2024-01-15T05:42:23;1.40;99.90
74513;DHT22;62992;52.052;8.550;2024-01-15T05:45:07;1.40;99.90
74513;DHT22;62992;52.052;8.550;2024-01-15T05:47:52;1.40;99.90
74513;DHT22;62992;52.052;8.550;2024-01-15T05:50:36;1.30;99.90
74513;DHT22;62992;52.052;8.550;2024-01-15T05:53:20;1.40;99.90
74513;DHT22;62992;52.052;8.550;2024-01-15T05:56:04;1.40;99.90
74513;DHT22;62992;52.052;8.550;2024-01-15T05:58:48;1.40;99.90
74513;DHT22;62992;52.052;8.550;2024-01-15T06:01:33;1.40;99.90
74513;DHT22;62992;52.052;8.550;2024-01-15T06:04:17;1.40;99.90
74513;DHT22;62992;52.052;8.550;2024-01-15T06:07:01;1.40;99.90
74513;DHT22;62992;52.052;8.550;2024-01-15T06:09:45;1.50;99.90
74513;DHT22;62992;52.052;8.550;2024-01-15T06:12:30;1.40;99.90
74513;DHT22;62992;52.052;8.550;2024-01-15T06:15:14;1.50;99.90
74513;DHT22;62992;52.052;8.550;2024-01-15T06:17:58;1.50;99.90
74513;DHT22;62992;52.052;8.550;2024-01-15T06:20:42;1.40;99.90
74513;DHT22;62992;52.052;8.550;2024-01-15T06:23:26;1.40;99.90
74513;DHT22;62992;52.052;8.550;2024-01-15T06:26:14;1.50;99.90
74513;DHT22;62992;52.052;8.550;2024-01-15T06:28:58;1.40;99.90
74513;DHT22;62992;52.052;8.550;2024-01-15T06:31:42;1.40;99.90
74513;DHT22;62992;52.052;8.550;2024-01-15T06:34:26;1.40;99.90
74513;DHT22;62992;52.052;8.550;2024-01-15T06:37:12;1.40;99.90
74513;DHT22;62992;52.052;8.550;2024-01-15T06:39:56;1.40;99.90
74513;DHT22;62992;52.052;8.550;2024-01-15T06:42:41;1.40;99.90
74513;DHT22;62992;52.052;8.550;2024-01-15T06:45:25;1.50;99.90
74513;DHT22;62992;52.052;8.550;2024-01-15T06:48:09;1.50;99.90
74513;DHT22;62992;52.052;8.550;2024-01-15T06:50:53;1.50;99.90
74513;DHT22;62992;52.052;8.550;2024-01-15T06:53:37;1.50;99.90
74513;DHT22;62992;52.052;8.550;2024-01-15T06:56:22;1.40;99.90
74513;DHT22;62992;52.052;8.550;2024-01-15T06:59:06;1.40;99.90
74513;DHT22;62992;52.052;8.550;2024-01-15T07:01:50;1.40;99.90
74513;DHT22;62992;52.052;8.550;2024-01-15T07:04:34;1.30;99.90
74513;DHT22;62992;52.052;8.550;2024-01-15T07:07:18;1.30;99.90
74513;DHT22;62992;52.052;8.550;2024-01-15T07:10:03;1.40;99.90
74513;DHT22;62992;52.052;8.550;2024-01-15T07:12:48;1.30;99.90
74513;DHT22;62992;52.052;8.550;2024-01-15T07:15:32;1.20;99.90
74513;DHT22;62992;52.052;8.550;2024-01-15T07:18:16;1.30;99.90
74513;DHT22;62992;52.052;8.550;2024-01-15T07:21:00;1.30;99.90
74513;DHT22;62992;52.052;8.550;2024-01-15T07:23:45;1.20;99.90
74513;DHT22;62992;52.052;8.550;2024-01-15T07:26:29;1.30;99.90
74513;DHT22;62992;52.052;8.550;2024-01-15T07:29:14;1.30;99.90
74513;DHT22;62992;52.052;8.550;2024-01-15T07:31:58;1.30;99.90
74513;DHT22;62992;52.052;8.550;2024-01-15T07:34:42;1.40;99.90
74513;DHT22;62992;52.052;8.550;2024-01-15T07:37:26;1.40;99.90
74513;DHT22;62992;52.052;8.550;2024-01-15T07:40:11;1.40;99.90
74513;DHT22;62992;52.052;8.550;2024-01-15T07:42:56;1.40;99.90
74513;DHT22;62992;52.052;8.550;2024-01-15T07:45:40;1.40;99.90
74513;DHT22;62992;52.052;8.550;2024-01-15T07:48:24;1.40;99.90
74513;DHT22;62992;52.052;8.550;2024-01-15T07:51:08;1.40;99.90
74513;DHT22;62992;52.052;8.550;2024-01-15T07:53:53;1.30;99.90
74513;DHT22;62992;52.052;8.550;2024-01-15T07:56:53;1.30;99.90
74513;DHT22;62992;52.052;8.550;2024-01-15T07:59:37;1.30;99.90
74513;DHT22;62992;52.052;8.550;2024-01-15T08:02:21;1.30;99.90
74513;DHT22;62992;52.052;8.550;2024-01-15T08:05:06;1.50;99.90
74513;DHT22;62992;52.052;8.550;2024-01-15T08:07:50;1.40;99.90
74513;DHT22;62992;52.052;8.550;2024-01-15T08:10:34;1.50;99.90
74513;DHT22;62992;52.052;8.550;2024-01-15T08:13:18;1.50;99.90
74513;DHT22;62992;52.052;8.550;2024-01-15T08:16:04;1.50;99.90
74513;DHT22;62992;52.052;8.550;2024-01-15T08:18:48;1.50;99.90
74513;DHT22;62992;52.052;8.550;2024-01-15T08:21:32;1.40;99.90
74513;DHT22;62992;52.052;8.550;2024-01-15T08:24:16;1.50;99.90
74513;DHT22;62992;52.052;8.550;2024-01-15T08:27:01;1.40;99.90
74513;DHT22;62992;52.052;8.550;2024-01-15T08:29:45;1.50;99.90
74513;DHT22;62992;52.052;8.550;2024-01-15T08:32:29;1.50;99.90
74513;DHT22;62992;52.052;8.550;2024-01-15T08:35:13;1.40;99.90
74513;DHT22;62992;52.052;8.550;2024-01-15T08:37:58;1.40;99.90
74513;DHT22;62992;52.052;8.550;2024-01-15T08:40:42;1.40;99.90
74513;DHT22;62992;52.052;8.550;2024-01-15T08:43:26;1.40;99.90
74513;DHT22;62992;52.052;8.550;2024-01-15T08:46:10;1.70;99.90
74513;DHT22;62992;52.052;8.550;2024-01-15T08:48:55;1.80;99.90
74513;DHT22;62992;52.052;8.550;2024-01-15T08:51:39;1.60;99.90
74513;DHT22;62992;52.052;8.550;2024-01-15T08:54:23;1.60;99.90
74513;DHT22;62992;52.052;8.550;2024-01-15T08:57:08;1.70;99.90
74513;DHT22;62992;52.052;8.550;2024-01-15T08:59:52;1.70;99.90
74513;DHT22;62992;52.052;8.550;2024-01-15T09:02:36;1.60;99.90
74513;DHT22;62992;52.052;8.550;2024-01-15T09:05:21;1.60;99.90
74513;DHT22;62992;52.052;8.550;2024-01-15T09:08:05;1.50;99.90
74513;DHT22;62992;52.052;8.550;2024-01-15T09:10:49;1.50;99.90
74513;DHT22;62992;52.052;8.550;2024-01-15T09:13:33;1.50;99.90
74513;DHT22;62992;52.052;8.550;2024-01-15T09:16:17;1.40;99.90
74513;DHT22;62992;52.052;8.550;2024-01-15T09:19:02;1.50;99.90
74513;DHT22;62992;52.052;8.550;2024-01-15T09:21:47;1.50;99.90
74513;DHT22;62992;52.052;8.550;2024-01-15T09:24:31;1.40;99.90
74513;DHT22;62992;52.052;8.550;2024-01-15T09:27:15;1.30;99.90
74513;DHT22;62992;52.052;8.550;2024-01-15T09:29:59;1.30;99.90
74513;DHT22;62992;52.052;8.550;2024-01-15T09:32:43;1.20;99.90
74513;DHT22;62992;52.052;8.550;2024-01-15T09:35:28;1.20;99.90
74513;DHT22;62992;52.052;8.550;2024-01-15T09:38:12;1.20;99.90
74513;DHT22;62992;52.052;8.550;2024-01-15T09:40:56;1.30;99.90
74513;DHT22;62992;52.052;8.550;2024-01-15T09:43:40;1.30;99.90
74513;DHT22;62992;52.052;8.550;2024-01-15T09:46:25;1.30;99.90
74513;DHT22;62992;52.052;8.550;2024-01-15T09:49:09;1.30;99.90
74513;DHT22;62992;52.052;8.550;2024-01-15T09:51:53;1.30;99.90
74513;DHT22;62992;52.052;8.550;2024-01-15T09:54:38;1.40;99.90
74513;DHT22;62992;52.052;8.550;2024-01-15T09:57:25;1.30;99.90
74513;DHT22;62992;52.052;8.550;2024-01-15T10:00:09;1.40;99.90
74513;DHT22;62992;52.052;8.550;2024-01-15T10:02:54;1.50;99.90
74513;DHT22;62992;52.052;8.550;2024-01-15T10:05:39;1.50;99.90
74513;DHT22;62992;52.052;8.550;2024-01-15T10:08:23;1.40;99.90
74513;DHT22;62992;52.052;8.550;2024-01-15T10:11:09;1.40;99.90
74513;DHT22;62992;52.052;8.550;2024-01-15T10:13:53;1.50;99.90
74513;DHT22;62992;52.052;8.550;2024-01-15T10:16:41;1.50;99.90
74513;DHT22;62992;52.052;8.550;2024-01-15T10:19:26;1.50;99.90
74513;DHT22;62992;52.052;8.550;2024-01-15T10:22:10;1.50;99.90
74513;DHT22;62992;52.052;8.550;2024-01-15T10:24:54;1.50;99.90
74513;DHT22;62992;52.052;8.550;2024-01-15T10:27:39;1.50;99.90
74513;DHT22;62992;52.052;8.550;2024-01-15T10:30:24;1.50;99.90
74513;DHT22;62992;52.052;8.550;2024-01-15T10:33:08;1.50;99.90
74513;DHT22;62992;52.052;8.550;2024-01-15T10:35:56;1.50;99.90
74513;DHT22;62992;52.052;8.550;2024-01-15T10:38:40;1.60;99.90
74513;DHT22;62992;52.052;8.550;2024-01-15T10:41:25;1.70;99.90
74513;DHT22;62992;52.052;8.550;2024-01-15T10:44:09;1.80;99.90
74513;DHT22;62992;52.052;8.550;2024-01-15T10:46:54;1.90;99.90
74513;DHT22;62992;52.052;8.550;2024-01-15T10:49:40;2.10;99.90
74513;DHT22;62992;52.052;8.550;2024-01-15T10:52:24;2.40;99.90
74513;DHT22;62992;52.052;8.550;2024-01-15T10:55:09;2.60;99.90
74513;DHT22;62992;52.052;8.550;2024-01-15T10:57:53;2.60;99.90
74513;DHT22;62992;52.052;8.550;2024-01-15T11:00:40;2.40;99.90
74513;DHT22;62992;52.052;8.550;2024-01-15T11:03:24;2.30;99.90
74513;DHT22;62992;52.052;8.550;2024-01-15T11:06:18;2.20;99.90
74513;DHT22;62992;52.052;8.550;2024-01-15T11:09:05;2.10;99.90
74513;DHT22;62992;52.052;8.550;2024-01-15T11:11:52;2.10;99.90
74513;DHT22;62992;52.052;8.550;2024-01-15T11:14:49;2.10;99.90
74513;DHT22;62992;52.052;8.550;2024-01-15T11:20:36;2.20;99.90
74513;DHT22;62992;52.052;8.550;2024-01-15T11:26:31;2.10;99.90
74513;DHT22;62992;52.052;8.550;2024-01-15T11:32:12;2.10;99.90
74513;DHT22;62992;52.052;8.550;2024-01-15T11:34:57;2.10;99.90
74513;DHT22;62992;52.052;8.550;2024-01-15T11:40:38;2.20;99.90
74513;DHT22;62992;52.052;8.550;2024-01-15T11:43:23;2.10;99.90
74513;DHT22;62992;52.052;8.550;2024-01-15T11:46:11;2.00;99.90
74513;DHT22;62992;52.052;8.550;2024-01-15T11:48:57;2.10;99.90
74513;DHT22;62992;52.052;8.550;2024-01-15T11:51:46;2.00;99.90
74513;DHT22;62992;52.052;8.550;2024-01-15T11:54:31;1.90;99.90
74513;DHT22;62992;52.052;8.550;2024-01-15T11:57:18;1.90;99.90
74513;DHT22;62992;52.052;8.550;2024-01-15T12:00:04;1.90;99.90
74513;DHT22;62992;52.052;8.550;2024-01-15T12:02:49;2.00;99.90
74513;DHT22;62992;52.052;8.550;2024-01-15T12:05:36;2.00;99.90
74513;DHT22;62992;52.052;8.550;2024-01-15T12:08:21;2.00;99.90
74513;DHT22;62992;52.052;8.550;2024-01-15T12:11:06;2.00;99.90
74513;DHT22;62992;52.052;8.550;2024-01-15T12:13:51;1.90;99.90
74513;DHT22;62992;52.052;8.550;2024-01-15T12:16:37;1.90;99.90
74513;DHT22;62992;52.052;8.550;2024-01-15T12:19:21;1.90;99.90
74513;DHT22;62992;52.052;8.550;2024-01-15T12:22:07;1.90;99.90
74513;DHT22;62992;52.052;8.550;2024-01-15T12:24:51;1.90;99.90
74513;DHT22;62992;52.052;8.550;2024-01-15T12:27:35;2.00;99.90
74513;DHT22;62992;52.052;8.550;2024-01-15T12:30:19;2.20;99.90
74513;DHT22;62992;52.052;8.550;2024-01-15T12:33:04;2.20;99.90
74513;DHT22;62992;52.052;8.550;2024-01-15T12:35:48;2.20;99.90
74513;DHT22;62992;52.052;8.550;2024-01-15T12:38:32;2.20;99.90
74513;DHT22;62992;52.052;8.550;2024-01-15T12:41:16;2.10;99.90
74513;DHT22;62992;52.052;8.550;2024-01-15T12:44:01;2.10;99.90
74513;DHT22;62992;52.052;8.550;2024-01-15T12:46:45;2.10;99.90
74513;DHT22;62992;52.052;8.550;2024-01-15T12:49:29;2.00;99.90
74513;DHT22;62992;52.052;8.550;2024-01-15T12:52:13;2.00;99.90
74513;DHT22;62992;52.052;8.550;2024-01-15T12:54:58;2.00;99.90
74513;DHT22;62992;52.052;8.550;2024-01-15T12:57:42;2.00;99.90
74513;DHT22;62992;52.052;8.550;2024-01-15T13:00:26;1.90;99.90
74513;DHT22;62992;52.052;8.550;2024-01-15T13:03:10;2.00;99.90
74513;DHT22;62992;52.052;8.550;2024-01-15T13:05:54;2.10;99.90
74513;DHT22;62992;52.052;8.550;2024-01-15T13:08:38;2.20;99.90
74513;DHT22;62992;52.052;8.550;2024-01-15T13:11:23;2.20;99.90
74513;DHT22;62992;52.052;8.550;2024-01-15T13:14:07;2.30;99.90
74513;DHT22;62992;52.052;8.550;2024-01-15T13:16:51;2.30;99.90
74513;DHT22;62992;52.052;8.550;2024-01-15T13:19:36;2.30;99.90
74513;DHT22;62992;52.052;8.550;2024-01-15T13:22:20;2.20;99.90
74513;DHT22;62992;52.052;8.550;2024-01-15T13:25:04;2.20;99.90
74513;DHT22;62992;52.052;8.550;2024-01-15T13:27:50;2.30;99.90
74513;DHT22;62992;52.052;8.550;2024-01-15T13:30:35;2.30;99.90
74513;DHT22;62992;52.052;8.550;2024-01-15T13:33:19;2.30;99.90
74513;DHT22;62992;52.052;8.550;2024-01-15T13:36:04;2.30;99.90
74513;DHT22;62992;52.052;8.550;2024-01-15T13:38:52;2.20;99.90
74513;DHT22;62992;52.052;8.550;2024-01-15T13:41:37;2.10;99.90
74513;DHT22;62992;52.052;8.550;2024-01-15T13:44:21;2.10;99.90
74513;DHT22;62992;52.052;8.550;2024-01-15T13:47:05;2.20;99.90
74513;DHT22;62992;52.052;8.550;2024-01-15T13:49:49;2.10;99.90
74513;DHT22;62992;52.052;8.550;2024-01-15T13:52:34;2.10;99.90
74513;DHT22;62992;52.052;8.550;2024-01-15T13:55:18;2.10;99.90
74513;DHT22;62992;52.052;8.550;2024-01-15T13:58:02;2.00;99.90
74513;DHT22;62992;52.052;8.550;2024-01-15T14:00:49;2.00;99.90
74513;DHT22;62992;52.052;8.550;2024-01-15T14:03:33;2.10;99.90
74513;DHT22;62992;52.052;8.550;2024-01-15T14:06:17;2.10;99.90
74513;DHT22;62992;52.052;8.550;2024-01-15T14:09:02;2.10;99.90
74513;DHT22;62992;52.052;8.550;2024-01-15T14:11:48;2.10;99.90
74513;DHT22;62992;52.052;8.550;2024-01-15T14:14:32;2.10;99.90
74513;DHT22;62992;52.052;8.550;2024-01-15T14:17:17;2.10;99.90
74513;DHT22;62992;52.052;8.550;2024-01-15T14:20:02;2.10;99.90
74513;DHT22;62992;52.052;8.550;2024-01-15T14:22:48;2.10;99.90
74513;DHT22;62992;52.052;8.550;2024-01-15T14:25:32;2.00;99.90
74513;DHT22;62992;52.052;8.550;2024-01-15T14:28:17;2.00;99.90
74513;DHT22;62992;52.052;8.550;2024-01-15T14:31:01;1.90;99.90
74513;DHT22;62992;52.052;8.550;2024-01-15T14:33:46;1.80;99.90
74513;DHT22;62992;52.052;8.550;2024-01-15T14:36:31;1.60;99.90
74513;DHT22;62992;52.052;8.550;2024-01-15T14:39:15;1.60;99.90
74513;DHT22;62992;52.052;8.550;2024-01-15T14:41:59;1.50;99.90
74513;DHT22;62992;52.052;8.550;2024-01-15T14:44:43;1.50;99.90
74513;DHT22;62992;52.052;8.550;2024-01-15T14:47:28;1.50;99.90
74513;DHT22;62992;52.052;8.550;2024-01-15T14:50:12;1.40;99.90
74513;DHT22;62992;52.052;8.550;2024-01-15T14:52:56;1.50;99.90
74513;DHT22;62992;52.052;8.550;2024-01-15T14:55:40;1.40;99.90
74513;DHT22;62992;52.052;8.550;2024-01-15T14:58:24;1.40;99.90
74513;DHT22;62992;52.052;8.550;2024-01-15T15:01:08;1.50;99.90
74513;DHT22;62992;52.052;8.550;2024-01-15T15:03:53;1.40;99.90
74513;DHT22;62992;52.052;8.550;2024-01-15T15:06:37;1.50;99.90
74513;DHT22;62992;52.052;8.550;2024-01-15T15:09:22;1.50;99.90
74513;DHT22;62992;52.052;8.550;2024-01-15T15:12:06;1.50;99.90
74513;DHT22;62992;52.052;8.550;2024-01-15T15:14:50;1.50;99.90
74513;DHT22;62992;52.052;8.550;2024-01-15T15:17:35;1.50;99.90
74513;DHT22;62992;52.052;8.550;2024-01-15T15:20:19;1.50;99.90
74513;DHT22;62992;52.052;8.550;2024-01-15T15:23:03;1.50;99.90
74513;DHT22;62992;52.052;8.550;2024-01-15T15:25:49;1.50;99.90
74513;DHT22;62992;52.052;8.550;2024-01-15T15:28:33;1.50;99.90
74513;DHT22;62992;52.052;8.550;2024-01-15T15:31:20;1.50;99.90
74513;DHT22;62992;52.052;8.550;2024-01-15T15:34:04;1.50;99.90
74513;DHT22;62992;52.052;8.550;2024-01-15T15:36:49;1.50;99.90
74513;DHT22;62992;52.052;8.550;2024-01-15T15:39:33;1.50;99.90
74513;DHT22;62992;52.052;8.550;2024-01-15T15:42:17;1.50;99.90
74513;DHT22;62992;52.052;8.550;2024-01-15T15:45:02;1.60;99.90
74513;DHT22;62992;52.052;8.550;2024-01-15T15:47:47;1.50;99.90
74513;DHT22;62992;52.052;8.550;2024-01-15T15:50:31;1.50;99.90
74513;DHT22;62992;52.052;8.550;2024-01-15T15:53:15;1.50;99.90
74513;DHT22;62992;52.052;8.550;2024-01-15T15:55:59;1.40;99.90
74513;DHT22;62992;52.052;8.550;2024-01-15T15:58:43;1.40;99.90
74513;DHT22;62992;52.052;8.550;2024-01-15T16:01:28;1.40;99.90
74513;DHT22;62992;52.052;8.550;2024-01-15T16:04:12;1.50;99.90
74513;DHT22;62992;52.052;8.550;2024-01-15T16:06:58;1.50;99.90
74513;DHT22;62992;52.052;8.550;2024-01-15T16:09:42;1.50;99.90
74513;DHT22;62992;52.052;8.550;2024-01-15T16:12:27;1.50;99.90
74513;DHT22;62992;52.052;8.550;2024-01-15T16:15:18;1.50;99.90
74513;DHT22;62992;52.052;8.550;2024-01-15T16:18:03;1.40;99.90
74513;DHT22;62992;52.052;8.550;2024-01-15T16:20:47;1.40;99.90
74513;DHT22;62992;52.052;8.550;2024-01-15T16:23:32;1.40;99.90
74513;DHT22;62992;52.052;8.550;2024-01-15T16:26:16;1.40;99.90
74513;DHT22;62992;52.052;8.550;2024-01-15T16:29:00;1.40;99.90
74513;DHT22;62992;52.052;8.550;2024-01-15T16:31:44;1.30;99.90
74513;DHT22;62992;52.052;8.550;2024-01-15T16:34:29;1.30;99.90
74513;DHT22;62992;52.052;8.550;2024-01-15T16:37:13;1.20;99.90
74513;DHT22;62992;52.052;8.550;2024-01-15T16:39:57;1.30;99.90
74513;DHT22;62992;52.052;8.550;2024-01-15T16:42:41;1.30;99.90
74513;DHT22;62992;52.052;8.550;2024-01-15T16:45:25;1.30;99.90
74513;DHT22;62992;52.052;8.550;2024-01-15T16:48:09;1.30;99.90
74513;DHT22;62992;52.052;8.550;2024-01-15T16:50:54;1.30;99.90
74513;DHT22;62992;52.052;8.550;2024-01-15T16:53:38;1.40;99.90
74513;DHT22;62992;52.052;8.550;2024-01-15T16:56:22;1.40;99.90
74513;DHT22;62992;52.052;8.550;2024-01-15T16:59:06;1.40;99.90
74513;DHT22;62992;52.052;8.550;2024-01-15T17:01:50;1.40;99.90
74513;DHT22;62992;52.052;8.550;2024-01-15T17:04:35;1.30;99.90
74513;DHT22;62992;52.052;8.550;2024-01-15T17:07:19;1.30;99.90
74513;DHT22;62992;52.052;8.550;2024-01-15T17:10:03;1.40;99.90
74513;DHT22;62992;52.052;8.550;2024-01-15T17:12:48;1.40;99.90
74513;DHT22;62992;52.052;8.550;2024-01-15T17:15:32;1.30;99.90
74513;DHT22;62992;52.052;8.550;2024-01-15T17:18:16;1.40;99.90
74513;DHT22;62992;52.052;8.550;2024-01-15T17:21:00;1.30;99.90
74513;DHT22;62992;52.052;8.550;2024-01-15T17:23:44;1.30;99.90
74513;DHT22;62992;52.052;8.550;2024-01-15T17:26:30;1.30;99.90
74513;DHT22;62992;52.052;8.550;2024-01-15T17:29:14;1.30;99.90
74513;DHT22;62992;52.052;8.550;2024-01-15T17:31:59;1.40;99.90
74513;DHT22;62992;52.052;8.550;2024-01-15T17:34:43;1.40;99.90
74513;DHT22;62992;52.052;8.550;2024-01-15T17:37:27;1.40;99.90
74513;DHT22;62992;52.052;8.550;2024-01-15T17:40:11;1.40;99.90
74513;DHT22;62992;52.052;8.550;2024-01-15T17:42:56;1.40;99.90
74513;DHT22;62992;52.052;8.550;2024-01-15T17:45:40;1.50;99.90
74513;DHT22;62992;52.052;8.550;2024-01-15T17:48:25;1.40;99.90